Time;durP1;ratioP1;P1;durP2;ratioP2;P2;SDS_P1;SDS_P2;PMS_P1;PMS_P2;Temp;Humidity;BMP_temperature;BMP_pressure;BME280_temperature;BME280_humidity;BME280_pressure;Samples;Min_cycle;Max_cycle;Signal;HPM_P1;HPM_P2
2022/12/08 00:02:00;;;;;;;3.42;0.50;;;1.70;99.90;;;;;;5113735;27;20051;-38
2022/12/08 00:04:26;;;;;;;1.17;0.40;;;1.70;99.90;;;;;;5117319;27;20400;-38
2022/12/08 00:09:38;;;;;;;2.83;0.47;;;1.80;99.90;;;;;;5119909;27;20050;-39
2022/12/08 00:12:05;;;;;;;3.33;0.60;;;1.90;99.90;;;;;;5120115;27;20047;-38
2022/12/08 00:14:40;;;;;;;6.47;0.80;;;1.90;99.90;;;;;;5116130;27;20028;-38
2022/12/08 00:17:08;;;;;;;3.97;0.70;;;2.00;99.90;;;;;;5117436;27;20455;-38
2022/12/08 00:19:35;;;;;;;2.83;0.50;;;2.10;99.90;;;;;;5118990;27;20066;-38
2022/12/08 00:22:02;;;;;;;3.72;0.47;;;2.10;99.90;;;;;;5119509;27;20590;-38
2022/12/08 00:24:33;;;;;;;5.25;0.77;;;2.10;99.90;;;;;;5121213;27;20042;-38
2022/12/08 00:27:00;;;;;;;3.85;0.60;;;2.10;99.90;;;;;;5118544;27;20111;-39
2022/12/08 00:29:26;;;;;;;3.40;0.80;;;2.20;99.90;;;;;;5123473;27;20031;-39
2022/12/08 00:31:52;;;;;;;4.22;0.68;;;2.20;99.90;;;;;;5121004;27;20042;-38
2022/12/08 00:34:17;;;;;;;2.75;0.60;;;2.30;99.90;;;;;;5121592;27;20035;-38
2022/12/08 00:36:45;;;;;;;1.98;0.60;;;2.30;99.90;;;;;;5119556;27;20050;-38
2022/12/08 00:39:12;;;;;;;2.85;0.60;;;2.30;99.90;;;;;;5114924;27;20038;-39
2022/12/08 00:44:22;;;;;;;2.70;1.25;;;2.30;99.90;;;;;;5114078;27;20506;-40
2022/12/08 00:46:48;;;;;;;3.65;0.70;;;2.20;99.90;;;;;;5115711;27;20308;-39
2022/12/08 00:49:14;;;;;;;3.38;0.80;;;2.20;99.90;;;;;;5117580;27;20036;-39
2022/12/08 00:51:40;;;;;;;2.08;0.80;;;2.20;99.90;;;;;;5116863;27;20062;-39
2022/12/08 00:54:06;;;;;;;3.15;0.90;;;2.20;99.90;;;;;;5119686;27;20481;-39
2022/12/08 00:56:33;;;;;;;4.38;0.90;;;2.20;99.90;;;;;;5116499;27;20034;-39
2022/12/08 00:58:59;;;;;;;7.82;1.10;;;2.20;99.90;;;;;;5121433;27;20030;-39
2022/12/08 01:01:24;;;;;;;5.88;0.98;;;2.30;99.90;;;;;;5119712;27;20031;-39
2022/12/08 01:03:50;;;;;;;5.30;0.93;;;2.40;99.90;;;;;;5121434;27;20039;-39
2022/12/08 01:06:16;;;;;;;4.22;1.17;;;2.50;99.90;;;;;;5121951;27;20035;-39
2022/12/08 01:08:42;;;;;;;6.88;1.05;;;2.50;99.90;;;;;;5122882;27;20528;-39
2022/12/08 01:11:14;;;;;;;5.60;1.10;;;2.60;99.90;;;;;;5124712;27;20044;-39
2022/12/08 01:13:40;;;;;;;2.67;1.00;;;2.70;99.90;;;;;;5121537;27;20556;-39
2022/12/08 01:16:06;;;;;;;3.58;0.80;;;2.70;99.90;;;;;;5123567;27;20070;-39
2022/12/08 01:18:33;;;;;;;3.30;0.85;;;2.80;99.90;;;;;;5123045;27;20110;-39
2022/12/08 01:21:04;;;;;;;7.85;1.63;;;2.80;99.90;;;;;;5105246;27;20039;-40
2022/12/08 01:23:30;;;;;;;1.92;0.70;;;2.80;99.90;;;;;;5119754;27;20495;-38
2022/12/08 01:25:59;;;;;;;3.28;0.73;;;2.80;99.90;;;;;;5123824;27;20031;-39
2022/12/08 01:28:25;;;;;;;2.38;0.60;;;2.90;99.90;;;;;;5122264;27;20625;-39
2022/12/08 01:30:51;;;;;;;2.45;0.50;;;2.90;99.90;;;;;;5122922;27;20127;-39
2022/12/08 01:33:16;;;;;;;2.83;0.50;;;2.90;99.90;;;;;;5124617;27;20071;-39
2022/12/08 01:35:42;;;;;;;3.83;0.65;;;3.00;99.90;;;;;;5120410;27;20556;-39
2022/12/08 01:38:07;;;;;;;6.22;0.50;;;3.00;99.90;;;;;;5120656;27;20027;-39
2022/12/08 01:40:33;;;;;;;4.65;0.60;;;3.10;99.90;;;;;;5120825;27;20388;-39
2022/12/08 01:42:59;;;;;;;3.45;0.50;;;3.10;99.90;;;;;;5118810;27;20045;-39
2022/12/08 01:45:30;;;;;;;2.08;0.35;;;3.10;99.90;;;;;;5127094;27;20207;-39
2022/12/08 01:48:00;;;;;;;5.97;0.60;;;3.10;99.90;;;;;;5117296;27;20047;-40
2022/12/08 01:50:27;;;;;;;3.63;0.50;;;3.10;99.90;;;;;;5121290;27;20514;-40
2022/12/08 01:53:07;;;;;;;2.72;0.80;;;3.10;99.90;;;;;;5120090;27;20114;-39
2022/12/08 01:55:43;;;;;;;4.38;0.70;;;3.10;99.90;;;;;;5121317;27;20027;-40
2022/12/08 01:58:31;;;;;;;3.72;0.73;;;3.10;99.90;;;;;;5123698;27;20102;-38
2022/12/08 02:00:56;;;;;;;4.10;0.90;;;3.00;99.90;;;;;;5117705;27;20083;-40
2022/12/08 02:03:59;;;;;;;2.63;0.82;;;3.00;99.90;;;;;;5120849;27;20492;-40
2022/12/08 02:06:27;;;;;;;6.70;1.20;;;3.00;99.90;;;;;;5115172;27;20058;-39
2022/12/08 02:08:54;;;;;;;6.47;1.00;;;2.90;99.90;;;;;;5118141;27;20138;-39
2022/12/08 02:11:20;;;;;;;4.32;1.23;;;2.90;99.90;;;;;;5121381;27;20041;-39
2022/12/08 02:13:47;;;;;;;5.72;1.70;;;2.90;99.90;;;;;;5120926;27;20031;-39
2022/12/08 02:16:50;;;;;;;6.95;2.00;;;2.90;99.90;;;;;;5122906;27;20435;-40
2022/12/08 02:19:19;;;;;;;3.67;1.73;;;2.90;99.90;;;;;;5124409;27;20499;-39
2022/12/08 02:22:08;;;;;;;4.55;1.77;;;3.00;99.90;;;;;;5117813;27;20684;-39
2022/12/08 02:24:50;;;;;;;6.40;1.70;;;3.00;99.90;;;;;;5115696;27;20111;-39
2022/12/08 02:27:40;;;;;;;8.68;1.85;;;3.10;99.90;;;;;;5115046;27;20100;-39
2022/12/08 02:30:23;;;;;;;2.97;1.00;;;3.10;99.90;;;;;;5120241;27;20508;-39
2022/12/08 02:33:15;;;;;;;7.55;1.30;;;3.10;99.90;;;;;;5104542;28;20040;-39
2022/12/08 02:36:03;;;;;;;2.95;1.30;;;3.20;99.90;;;;;;5114611;27;20039;-39
2022/12/08 02:38:31;;;;;;;3.75;1.70;;;3.20;99.90;;;;;;5118168;27;20039;-39
2022/12/08 02:41:12;;;;;;;8.38;1.50;;;3.20;99.90;;;;;;5112024;27;20039;-40
2022/12/08 02:43:42;;;;;;;5.57;1.80;;;3.20;99.90;;;;;;5119774;28;20507;-39
2022/12/08 02:46:12;;;;;;;5.75;1.70;;;3.30;99.90;;;;;;5117202;27;20039;-39
2022/12/08 02:48:38;;;;;;;2.53;1.25;;;3.30;99.90;;;;;;5109520;27;20054;-39
2022/12/08 02:51:04;;;;;;;6.45;1.50;;;3.30;99.90;;;;;;5111496;27;20778;-39
2022/12/08 02:53:32;;;;;;;5.55;1.40;;;3.30;99.90;;;;;;5123152;28;20126;-41
2022/12/08 02:56:13;;;;;;;3.25;1.10;;;3.30;99.90;;;;;;5124939;28;20472;-39
2022/12/08 02:59:08;;;;;;;4.20;1.38;;;3.30;99.90;;;;;;5123325;28;20039;-40
2022/12/08 03:01:56;;;;;;;5.78;1.52;;;3.30;99.90;;;;;;5115267;27;20047;-39
2022/12/08 03:04:24;;;;;;;3.78;1.30;;;3.20;99.90;;;;;;5118719;27;20071;-39
2022/12/08 03:07:14;;;;;;;7.43;2.13;;;3.20;99.90;;;;;;5120783;28;20043;-39
2022/12/08 03:09:57;;;;;;;3.90;1.60;;;3.20;99.90;;;;;;5124210;27;20043;-39
2022/12/08 03:12:43;;;;;;;3.45;1.33;;;3.20;99.90;;;;;;5120126;28;20044;-40
2022/12/08 03:15:13;;;;;;;4.25;1.45;;;3.10;99.90;;;;;;5120656;28;20043;-39
2022/12/08 03:17:44;;;;;;;7.50;1.40;;;3.10;99.90;;;;;;5116321;28;20309;-39
2022/12/08 03:20:15;;;;;;;5.38;1.65;;;3.00;99.90;;;;;;5115642;27;20042;-39
2022/12/08 03:22:42;;;;;;;6.50;1.67;;;3.00;99.90;;;;;;5118668;28;20071;-39
2022/12/08 03:25:12;;;;;;;3.85;1.20;;;2.90;99.90;;;;;;5117634;28;20067;-39
2022/12/08 03:27:38;;;;;;;5.03;1.33;;;2.90;99.90;;;;;;5112562;27;20043;-39
2022/12/08 03:30:04;;;;;;;4.47;2.22;;;2.90;99.90;;;;;;5124785;27;20081;-39
2022/12/08 03:32:57;;;;;;;4.35;1.30;;;2.90;99.90;;;;;;5119749;27;20143;-39
2022/12/08 03:35:24;;;;;;;;;;;2.90;99.90;;;;;;5099173;28;20128;-39
2022/12/08 03:37:50;;;;;;;3.30;1.00;;;2.90;99.90;;;;;;5123037;27;19930;-39
2022/12/08 03:40:18;;;;;;;4.75;1.13;;;2.90;99.90;;;;;;5125351;27;20039;-40
2022/12/08 03:42:44;;;;;;;2.25;0.70;;;2.90;99.90;;;;;;5124622;27;20123;-40
2022/12/08 03:45:10;;;;;;;4.25;0.93;;;2.90;99.90;;;;;;5123836;27;20060;-39
2022/12/08 03:47:36;;;;;;;3.13;0.50;;;2.90;99.90;;;;;;5128487;27;20067;-39
2022/12/08 03:50:02;;;;;;;1.83;0.38;;;2.90;99.90;;;;;;5118336;27;20031;-39
2022/12/08 03:52:28;;;;;;;2.30;0.40;;;2.90;99.90;;;;;;5123619;27;20054;-39
2022/12/08 03:54:53;;;;;;;1.83;0.28;;;2.90;99.90;;;;;;5120619;27;20094;-39
2022/12/08 03:57:20;;;;;;;1.02;0.20;;;2.90;99.90;;;;;;5123492;27;20031;-40
2022/12/08 03:59:46;;;;;;;2.15;0.30;;;2.90;99.90;;;;;;5127325;27;20043;-39
2022/12/08 04:02:11;;;;;;;0.77;0.30;;;2.90;99.90;;;;;;5125359;27;20046;-40
2022/12/08 04:04:37;;;;;;;0.98;0.30;;;2.90;99.90;;;;;;5122753;27;20049;-39
2022/12/08 04:07:03;;;;;;;0.93;0.30;;;2.90;99.90;;;;;;5126880;27;20039;-38
2022/12/08 04:09:28;;;;;;;3.63;0.80;;;2.90;99.90;;;;;;5125981;27;20391;-38
2022/12/08 04:11:54;;;;;;;1.67;0.80;;;2.90;99.90;;;;;;5122484;27;20031;-39
2022/12/08 04:14:20;;;;;;;4.90;0.73;;;2.90;99.90;;;;;;5126274;27;20043;-39
2022/12/08 04:16:45;;;;;;;2.03;0.60;;;2.90;99.90;;;;;;5127716;27;20078;-40
2022/12/08 04:19:11;;;;;;;1.92;0.50;;;2.90;99.90;;;;;;5124787;27;20031;-39
2022/12/08 04:21:36;;;;;;;1.00;0.47;;;2.90;99.90;;;;;;5122855;27;20053;-39
2022/12/08 04:24:02;;;;;;;2.47;0.85;;;3.00;99.90;;;;;;5124449;27;20039;-40
2022/12/08 04:26:28;;;;;;;2.00;0.82;;;3.00;99.90;;;;;;5119400;27;20035;-39
2022/12/08 04:28:54;;;;;;;1.52;0.77;;;3.00;99.90;;;;;;5117539;27;20471;-39
2022/12/08 04:31:19;;;;;;;2.42;0.73;;;2.90;99.90;;;;;;5126902;27;20176;-39
2022/12/08 04:33:45;;;;;;;3.15;0.80;;;2.90;99.90;;;;;;5119134;27;20049;-39
2022/12/08 04:36:11;;;;;;;2.78;1.10;;;2.90;99.90;;;;;;5119041;27;20035;-39
2022/12/08 04:38:37;;;;;;;3.33;0.98;;;2.90;99.90;;;;;;5120678;27;20051;-39
2022/12/08 04:41:02;;;;;;;2.83;1.10;;;2.90;99.90;;;;;;5125437;27;20041;-39
2022/12/08 04:43:28;;;;;;;2.92;0.70;;;2.90;99.90;;;;;;5125861;27;20612;-39
2022/12/08 04:45:54;;;;;;;2.78;0.80;;;2.80;99.90;;;;;;5123658;27;20118;-40
2022/12/08 04:48:20;;;;;;;1.50;0.60;;;2.80;99.90;;;;;;5125748;27;20126;-39
2022/12/08 04:50:46;;;;;;;1.33;0.43;;;2.80;99.90;;;;;;5122211;27;20132;-40
2022/12/08 04:53:13;;;;;;;1.45;0.55;;;2.80;99.90;;;;;;5123868;27;20403;-39
2022/12/08 04:55:40;;;;;;;1.42;0.60;;;2.80;99.90;;;;;;5121750;27;20031;-39
2022/12/08 04:58:06;;;;;;;2.85;0.40;;;2.80;99.90;;;;;;5122323;27;20101;-39
2022/12/08 05:00:32;;;;;;;2.55;0.20;;;2.80;99.90;;;;;;5116038;27;20035;-38
2022/12/08 05:02:57;;;;;;;0.93;0.25;;;2.80;99.90;;;;;;5120764;27;20544;-39
2022/12/08 05:05:23;;;;;;;1.60;0.10;;;2.80;99.90;;;;;;5118883;27;20031;-39
2022/12/08 05:07:49;;;;;;;2.67;0.17;;;2.80;99.90;;;;;;5106634;27;20042;-38
2022/12/08 05:10:15;;;;;;;0.90;0.20;;;2.80;99.90;;;;;;5122876;27;20448;-38
2022/12/08 05:12:40;;;;;;;1.95;0.10;;;2.80;99.90;;;;;;5122656;27;20043;-39
2022/12/08 05:15:06;;;;;;;0.38;0.10;;;2.80;99.90;;;;;;5116939;27;20039;-39
2022/12/08 05:17:32;;;;;;;2.10;0.20;;;2.80;99.90;;;;;;5120728;27;20035;-39
2022/12/08 05:19:58;;;;;;;0.73;0.10;;;2.80;99.90;;;;;;5118323;27;20033;-39
2022/12/08 05:22:23;;;;;;;0.73;0.15;;;2.80;99.90;;;;;;5116905;27;20036;-39
2022/12/08 05:24:49;;;;;;;0.15;0.00;;;2.80;99.90;;;;;;5119189;27;20083;-38
2022/12/08 05:27:15;;;;;;;3.45;0.30;;;2.80;99.90;;;;;;5121360;27;20540;-38
2022/12/08 05:29:41;;;;;;;2.25;0.40;;;2.80;99.90;;;;;;5124343;27;20445;-39
2022/12/08 05:32:07;;;;;;;0.63;0.10;;;2.80;99.90;;;;;;5123216;27;20092;-39
2022/12/08 05:34:32;;;;;;;1.80;0.28;;;2.70;99.90;;;;;;5119120;27;20423;-38
2022/12/08 05:36:58;;;;;;;0.32;0.10;;;2.70;99.90;;;;;;5120928;27;20516;-39
2022/12/08 05:39:24;;;;;;;1.65;0.47;;;2.70;99.90;;;;;;5120770;27;20159;-40
2022/12/08 05:41:49;;;;;;;0.47;0.10;;;2.70;99.90;;;;;;5105105;27;20043;-38
2022/12/08 05:44:15;;;;;;;1.85;0.65;;;2.70;99.90;;;;;;5121318;27;20045;-38
2022/12/08 05:46:41;;;;;;;3.08;0.15;;;2.70;99.90;;;;;;5123376;27;20073;-39
2022/12/08 05:49:06;;;;;;;0.30;0.00;;;2.70;99.90;;;;;;5123300;27;20046;-39
2022/12/08 05:51:32;;;;;;;1.27;0.10;;;2.70;99.90;;;;;;5116747;27;20045;-38
2022/12/08 05:53:58;;;;;;;1.02;0.10;;;2.70;99.90;;;;;;5125757;27;20141;-38
2022/12/08 05:56:24;;;;;;;1.45;0.10;;;2.70;99.90;;;;;;5102094;27;20038;-39
2022/12/08 05:58:50;;;;;;;0.40;0.20;;;2.70;99.90;;;;;;5127120;27;20114;-39
2022/12/08 06:01:19;;;;;;;0.13;0.10;;;2.70;99.90;;;;;;5124990;27;20668;-39
2022/12/08 06:03:45;;;;;;;0.90;0.17;;;2.70;99.90;;;;;;5124353;27;20039;-39
2022/12/08 06:06:10;;;;;;;0.90;0.10;;;2.70;99.90;;;;;;5126037;27;20050;-38
2022/12/08 06:08:36;;;;;;;0.93;0.10;;;2.60;99.90;;;;;;5125278;27;20045;-38
2022/12/08 06:11:02;;;;;;;1.80;0.15;;;2.60;99.90;;;;;;5105083;27;20122;-38
2022/12/08 06:13:27;;;;;;;3.15;0.20;;;2.60;99.90;;;;;;5108099;27;20031;-38
2022/12/08 06:15:53;;;;;;;1.05;0.20;;;2.60;99.90;;;;;;5122922;27;20036;-39
2022/12/08 06:18:19;;;;;;;0.75;0.20;;;2.60;99.90;;;;;;5121904;27;20027;-39
2022/12/08 06:20:44;;;;;;;1.20;0.45;;;2.60;99.90;;;;;;5122250;27;20118;-38
2022/12/08 06:23:10;;;;;;;1.73;0.10;;;2.60;99.90;;;;;;5121837;27;20126;-39
2022/12/08 06:25:36;;;;;;;2.03;0.10;;;2.60;99.90;;;;;;5123889;27;20035;-38
2022/12/08 06:28:05;;;;;;;3.90;0.20;;;2.60;99.90;;;;;;5120307;27;20540;-38
2022/12/08 06:30:30;;;;;;;0.80;0.10;;;2.60;99.90;;;;;;5116575;27;20058;-38
2022/12/08 06:32:56;;;;;;;3.78;0.22;;;2.60;99.90;;;;;;5118298;27;20031;-38
2022/12/08 06:35:22;;;;;;;2.90;0.10;;;2.60;99.90;;;;;;5120238;27;20065;-38
2022/12/08 06:37:47;;;;;;;1.73;0.30;;;2.60;99.90;;;;;;5116657;28;20069;-38
2022/12/08 06:40:13;;;;;;;0.93;0.13;;;2.60;99.90;;;;;;5121337;27;20449;-39
2022/12/08 06:42:42;;;;;;;1.00;0.13;;;2.60;99.90;;;;;;5120216;28;20077;-38
2022/12/08 06:45:09;;;;;;;2.22;0.20;;;2.60;99.90;;;;;;5112786;27;20039;-39
2022/12/08 06:47:35;;;;;;;1.13;0.10;;;2.60;99.90;;;;;;5116261;27;20532;-38
2022/12/08 06:50:01;;;;;;;4.38;0.20;;;2.60;99.90;;;;;;5121451;27;20521;-38
2022/12/08 06:52:26;;;;;;;0.20;0.05;;;2.70;99.90;;;;;;5121482;28;20034;-38
2022/12/08 06:54:52;;;;;;;2.70;0.10;;;2.70;99.90;;;;;;5118348;28;20507;-39
2022/12/08 06:57:18;;;;;;;0.63;0.00;;;2.70;99.90;;;;;;5126783;28;20485;-40
2022/12/08 06:59:43;;;;;;;0.30;0.20;;;2.70;99.90;;;;;;5123564;27;20096;-39
2022/12/08 07:02:10;;;;;;;0.95;0.00;;;2.70;99.90;;;;;;5118648;27;20043;-38
2022/12/08 07:04:35;;;;;;;0.65;0.10;;;2.70;99.90;;;;;;5118027;27;20039;-39
2022/12/08 07:07:01;;;;;;;1.05;0.20;;;2.70;99.90;;;;;;5114624;28;20508;-39
2022/12/08 07:09:28;;;;;;;0.30;0.10;;;2.70;99.90;;;;;;5116453;28;20115;-39
2022/12/08 07:11:53;;;;;;;0.70;0.10;;;2.80;99.90;;;;;;5117758;27;20047;-39
2022/12/08 07:14:23;;;;;;;0.75;0.10;;;2.80;99.90;;;;;;5120431;27;20092;-39
2022/12/08 07:16:50;;;;;;;0.03;0.00;;;2.80;99.90;;;;;;5101432;27;20458;-38
2022/12/08 07:19:16;;;;;;;0.28;0.10;;;2.80;99.90;;;;;;5120503;27;20035;-39
2022/12/08 07:21:41;;;;;;;1.92;0.10;;;2.80;99.90;;;;;;5117580;27;20081;-39
2022/12/08 07:24:10;;;;;;;0.68;0.43;;;2.80;99.90;;;;;;5119931;27;20043;-38
2022/12/08 07:26:36;;;;;;;0.40;0.10;;;2.80;99.90;;;;;;5123420;27;20039;-38
2022/12/08 07:29:02;;;;;;;0.60;0.10;;;2.80;99.90;;;;;;5114465;27;20094;-38
2022/12/08 07:31:28;;;;;;;0.50;0.10;;;2.80;99.90;;;;;;5123047;27;20518;-38
2022/12/08 07:33:55;;;;;;;0.45;0.25;;;2.70;99.90;;;;;;5109041;27;20048;-39
2022/12/08 07:36:22;;;;;;;2.78;0.10;;;2.70;99.90;;;;;;5122396;27;21375;-38
2022/12/08 07:38:49;;;;;;;0.45;0.10;;;2.70;99.90;;;;;;5121087;27;20039;-38
2022/12/08 07:41:18;;;;;;;2.22;0.20;;;2.70;99.90;;;;;;5116161;27;20051;-39
2022/12/08 07:43:43;;;;;;;1.70;0.10;;;2.70;99.90;;;;;;5120970;27;20062;-38
2022/12/08 07:46:14;;;;;;;0.65;0.10;;;2.60;99.90;;;;;;5101421;27;20039;-38
2022/12/08 07:48:40;;;;;;;0.77;0.10;;;2.60;99.90;;;;;;5127214;27;20043;-39
2022/12/08 07:51:06;;;;;;;1.42;0.20;;;2.60;99.90;;;;;;5122414;27;20046;-38
2022/12/08 07:53:32;;;;;;;1.13;0.28;;;2.60;99.90;;;;;;5122053;27;20035;-39
2022/12/08 07:55:58;;;;;;;1.25;0.22;;;2.60;99.90;;;;;;5120957;27;20154;-38
2022/12/08 07:58:24;;;;;;;0.30;0.08;;;2.60;99.90;;;;;;5122888;27;20114;-39
2022/12/08 08:00:51;;;;;;;2.63;0.20;;;2.60;99.90;;;;;;5123321;27;20127;-40
2022/12/08 08:03:16;;;;;;;0.55;0.10;;;2.60;99.90;;;;;;5120090;27;20035;-38
2022/12/08 08:05:43;;;;;;;3.15;0.30;;;2.60;99.90;;;;;;5127476;27;20039;-38
2022/12/08 08:08:09;;;;;;;1.27;0.25;;;2.60;99.90;;;;;;5126076;27;20097;-38
2022/12/08 08:10:35;;;;;;;0.55;0.20;;;2.60;99.90;;;;;;5124330;27;20059;-38
2022/12/08 08:13:01;;;;;;;1.27;0.30;;;2.60;99.90;;;;;;5127961;27;20031;-38
2022/12/08 08:15:27;;;;;;;0.55;0.20;;;2.60;99.90;;;;;;5126240;27;20479;-38
2022/12/08 08:17:53;;;;;;;2.08;0.40;;;2.60;99.90;;;;;;5126686;27;20027;-40
2022/12/08 08:20:19;;;;;;;3.33;0.40;;;2.60;99.90;;;;;;5103395;27;20043;-39
2022/12/08 08:22:46;;;;;;;1.45;0.40;;;2.60;99.90;;;;;;5122111;27;20502;-38
2022/12/08 08:25:13;;;;;;;2.33;0.80;;;2.60;99.90;;;;;;5123074;27;20084;-39
2022/12/08 08:27:38;;;;;;;2.17;0.98;;;2.60;99.90;;;;;;5126249;27;20035;-39
2022/12/08 08:30:06;;;;;;;2.10;0.90;;;2.70;99.90;;;;;;5124369;27;20154;-39
2022/12/08 08:32:32;;;;;;;6.05;1.23;;;2.70;99.90;;;;;;5091108;28;20043;-38
2022/12/08 08:34:58;;;;;;;5.30;1.52;;;2.70;99.90;;;;;;5126786;27;20050;-38
2022/12/08 08:37:24;;;;;;;2.30;1.27;;;2.70;99.90;;;;;;5118968;27;20032;-38
2022/12/08 08:39:49;;;;;;;2.90;1.08;;;2.70;99.90;;;;;;5119700;27;20515;-40
2022/12/08 08:42:15;;;;;;;2.95;1.20;;;2.80;99.90;;;;;;5117221;27;20194;-38
2022/12/08 08:44:41;;;;;;;2.88;1.27;;;2.80;99.90;;;;;;5102590;27;20108;-38
2022/12/08 08:47:07;;;;;;;6.00;2.13;;;2.80;99.90;;;;;;5127967;27;20033;-39
2022/12/08 08:49:32;;;;;;;3.40;1.50;;;2.80;99.90;;;;;;5126988;27;20113;-38
2022/12/08 08:51:58;;;;;;;6.18;2.15;;;2.80;99.90;;;;;;5119843;27;20766;-38
2022/12/08 08:54:24;;;;;;;3.42;1.65;;;2.80;99.90;;;;;;5125881;27;20039;-39
2022/12/08 08:56:49;;;;;;;3.00;1.40;;;2.80;99.90;;;;;;5116282;27;20108;-39
2022/12/08 08:59:15;;;;;;;3.00;1.27;;;2.80;99.90;;;;;;5099891;28;20074;-38
2022/12/08 09:01:41;;;;;;;2.97;1.45;;;2.80;99.90;;;;;;5111818;27;20122;-38
2022/12/08 09:04:06;;;;;;;5.60;1.30;;;2.80;99.90;;;;;;5123216;27;20066;-38
2022/12/08 09:06:32;;;;;;;2.58;1.20;;;2.90;99.90;;;;;;5121885;27;20058;-38
2022/12/08 09:08:58;;;;;;;3.17;1.00;;;2.90;99.90;;;;;;5121408;27;20055;-38
2022/12/08 09:11:23;;;;;;;2.55;1.10;;;2.90;99.90;;;;;;5126396;27;20035;-38
2022/12/08 09:13:51;;;;;;;3.83;1.10;;;2.90;99.90;;;;;;5127575;27;20116;-38
2022/12/08 09:16:17;;;;;;;3.75;0.90;;;2.90;99.90;;;;;;5122711;27;20552;-38
2022/12/08 09:18:43;;;;;;;4.32;0.98;;;2.90;99.90;;;;;;5119805;27;20100;-39
2022/12/08 09:21:15;;;;;;;2.00;0.70;;;3.00;99.90;;;;;;5124159;27;20053;-39
2022/12/08 09:23:42;;;;;;;1.75;0.70;;;3.00;99.90;;;;;;5119822;27;20385;-39
2022/12/08 09:26:08;;;;;;;1.95;0.60;;;3.00;99.90;;;;;;5125469;27;20069;-38
2022/12/08 09:28:34;;;;;;;4.22;0.85;;;3.00;99.90;;;;;;5124024;27;20144;-38
2022/12/08 09:31:01;;;;;;;3.22;0.80;;;3.00;99.90;;;;;;5122256;27;20069;-38
2022/12/08 09:33:26;;;;;;;1.15;0.57;;;3.00;99.90;;;;;;5123545;27;20402;-38
2022/12/08 09:35:52;;;;;;;4.43;0.68;;;3.00;99.90;;;;;;5127128;27;20060;-39
2022/12/08 09:38:18;;;;;;;1.65;0.50;;;3.10;99.90;;;;;;5123567;27;20530;-39
2022/12/08 09:40:52;;;;;;;2.22;0.50;;;3.10;99.90;;;;;;5116319;27;20092;-39
2022/12/08 09:43:45;;;;;;;2.45;0.60;;;3.10;99.90;;;;;;5127111;27;20035;-38
2022/12/08 09:46:16;;;;;;;0.90;0.40;;;3.10;99.90;;;;;;5106003;27;20035;-40
2022/12/08 09:48:50;;;;;;;3.03;0.55;;;3.20;99.90;;;;;;5127849;27;20043;-39
2022/12/08 09:51:16;;;;;;;1.75;0.60;;;3.20;99.90;;;;;;5120668;27;20085;-39
2022/12/08 09:53:48;;;;;;;3.70;0.55;;;3.20;99.90;;;;;;5124564;27;20036;-39
2022/12/08 09:56:21;;;;;;;1.70;0.50;;;3.20;99.90;;;;;;5112610;27;20483;-38
2022/12/08 09:59:10;;;;;;;1.90;0.30;;;3.20;99.90;;;;;;5123582;27;20037;-38
2022/12/08 10:01:40;;;;;;;1.63;0.40;;;3.20;99.90;;;;;;5121563;27;20452;-39
2022/12/08 10:04:24;;;;;;;1.48;0.55;;;3.30;99.90;;;;;;5127571;27;20076;-38
2022/12/08 10:06:56;;;;;;;2.55;0.77;;;3.30;99.90;;;;;;5125222;27;20043;-38
2022/12/08 10:09:33;;;;;;;1.52;0.40;;;3.30;99.90;;;;;;5094760;28;20142;-38
2022/12/08 10:12:07;;;;;;;1.45;0.57;;;3.40;99.90;;;;;;5119256;27;20044;-38
2022/12/08 10:14:49;;;;;;;3.08;0.65;;;3.40;99.90;;;;;;5121635;27;20084;-38
2022/12/08 10:17:25;;;;;;;3.22;0.70;;;3.40;99.90;;;;;;5117577;27;20079;-38
2022/12/08 10:19:58;;;;;;;3.38;0.70;;;3.40;99.90;;;;;;5116307;27;20047;-39
2022/12/08 10:22:30;;;;;;;4.82;0.93;;;3.40;99.90;;;;;;5118718;27;20425;-39
2022/12/08 10:25:11;;;;;;;1.52;0.70;;;3.50;99.90;;;;;;5117470;27;20040;-38
2022/12/08 10:27:37;;;;;;;3.13;0.85;;;3.50;99.90;;;;;;5118204;27;20032;-39
2022/12/08 10:30:13;;;;;;;4.10;0.82;;;3.50;99.90;;;;;;5105808;28;20050;-38
2022/12/08 10:32:44;;;;;;;6.85;0.90;;;3.50;99.90;;;;;;5122101;27;20054;-38
2022/12/08 10:35:12;;;;;;;3.08;0.93;;;3.50;99.90;;;;;;5121864;27;20670;-39
2022/12/08 10:37:38;;;;;;;3.03;0.98;;;3.50;99.90;;;;;;5120752;27;20065;-39
2022/12/08 10:40:17;;;;;;;3.60;1.10;;;3.60;99.90;;;;;;5122394;27;20502;-39
2022/12/08 10:42:50;;;;;;;3.30;1.15;;;3.50;99.90;;;;;;5115180;28;20065;-39
2022/12/08 10:45:21;;;;;;;5.35;1.30;;;3.50;99.90;;;;;;5121135;27;20035;-40
2022/12/08 10:47:59;;;;;;;7.47;1.00;;;3.60;99.90;;;;;;5124665;27;20035;-39
2022/12/08 10:50:55;;;;;;;2.83;0.95;;;3.60;99.90;;;;;;5122741;27;20511;-40
2022/12/08 10:53:25;;;;;;;2.22;1.02;;;3.60;99.90;;;;;;5106622;27;20039;-39
2022/12/08 10:56:03;;;;;;;2.35;1.08;;;3.60;99.90;;;;;;5111144;27;20046;-39
2022/12/08 10:58:43;;;;;;;4.82;1.30;;;3.60;99.90;;;;;;5121550;27;20054;-39
2022/12/08 11:01:38;;;;;;;3.05;1.13;;;3.60;99.90;;;;;;5123350;27;20085;-39
2022/12/08 11:04:22;;;;;;;4.45;1.20;;;3.70;99.90;;;;;;5116222;27;20043;-39
2022/12/08 11:06:49;;;;;;;4.28;1.30;;;3.70;99.90;;;;;;5100131;28;20031;-39
2022/12/08 11:09:15;;;;;;;3.92;1.23;;;3.70;99.90;;;;;;5129363;27;20031;-39
2022/12/08 11:11:48;;;;;;;3.30;1.40;;;3.70;99.90;;;;;;5131275;27;20244;-39
2022/12/08 11:14:32;;;;;;;5.80;1.30;;;3.70;99.90;;;;;;5123939;27;20039;-38
2022/12/08 11:17:07;;;;;;;4.00;1.33;;;3.70;99.90;;;;;;5129121;27;20080;-38
2022/12/08 11:19:41;;;;;;;2.65;1.13;;;3.80;99.90;;;;;;5121407;27;20087;-39
2022/12/08 11:22:21;;;;;;;3.30;1.35;;;3.80;99.90;;;;;;5127616;27;20031;-38
2022/12/08 11:25:10;;;;;;;3.13;1.30;;;3.90;99.90;;;;;;5128232;27;20039;-38
2022/12/08 11:27:39;;;;;;;2.67;1.10;;;3.90;99.90;;;;;;5123768;27;20061;-38
2022/12/08 11:30:20;;;;;;;4.05;1.05;;;4.00;99.90;;;;;;5124318;27;20043;-39
2022/12/08 11:32:49;;;;;;;3.33;1.08;;;4.10;99.90;;;;;;5117849;27;20044;-38
2022/12/08 11:35:34;;;;;;;3.05;0.98;;;4.20;99.90;;;;;;5123908;27;20502;-38
2022/12/08 11:38:09;;;;;;;3.15;1.20;;;4.30;99.90;;;;;;5118193;27;20481;-38
2022/12/08 11:40:38;;;;;;;2.95;0.75;;;4.50;99.90;;;;;;5124070;27;20129;-38
2022/12/08 11:43:29;;;;;;;3.70;0.80;;;4.50;99.90;;;;;;5121258;27;20050;-39
2022/12/08 11:46:11;;;;;;;2.95;0.70;;;4.50;99.90;;;;;;5125799;27;20039;-38
2022/12/08 11:48:52;;;;;;;1.52;0.60;;;4.40;99.90;;;;;;5123941;27;20043;-39
2022/12/08 11:51:30;;;;;;;2.72;0.93;;;4.50;99.90;;;;;;5101501;27;20122;-38
2022/12/08 11:54:16;;;;;;;3.03;0.73;;;4.70;99.90;;;;;;5122265;27;20043;-39
2022/12/08 11:56:50;;;;;;;1.80;0.70;;;5.30;99.90;;;;;;5087403;27;20051;-38
2022/12/08 11:59:15;;;;;;;1.95;0.50;;;5.50;99.90;;;;;;5121416;27;20040;-39
2022/12/08 12:01:41;;;;;;;2.20;0.68;;;6.10;99.90;;;;;;5121828;27;20432;-40
2022/12/08 12:04:15;;;;;;;1.50;0.55;;;6.80;99.90;;;;;;5124144;27;20073;-38
2022/12/08 12:06:52;;;;;;;1.55;0.30;;;7.50;99.90;;;;;;5105855;27;20043;-38
2022/12/08 12:09:55;;;;;;;2.78;0.80;;;7.80;99.90;;;;;;5123206;27;20031;-39
2022/12/08 12:12:38;;;;;;;2.25;0.50;;;7.50;99.90;;;;;;5124456;27;20065;-40
2022/12/08 12:15:16;;;;;;;1.98;0.73;;;7.40;99.90;;;;;;5117768;27;20066;-39
2022/12/08 12:17:48;;;;;;;2.15;0.30;;;7.50;99.90;;;;;;5089684;27;20527;-39
2022/12/08 12:20:27;;;;;;;1.35;0.30;;;7.90;99.90;;;;;;5107483;27;20083;-38
2022/12/08 12:23:15;;;;;;;1.42;0.40;;;8.30;99.90;;;;;;5126585;27;20043;-39
2022/12/08 12:25:58;;;;;;;1.85;0.40;;;8.00;99.90;;;;;;5123667;27;20038;-39
2022/12/08 12:28:27;;;;;;;4.18;0.50;;;7.20;99.90;;;;;;5115895;27;20051;-39
2022/12/08 12:31:01;;;;;;;1.65;0.40;;;6.80;99.90;;;;;;5117440;27;20173;-40
2022/12/08 12:33:29;;;;;;;1.23;0.40;;;7.10;99.90;;;;;;5123434;27;20039;-39
2022/12/08 12:35:57;;;;;;;4.55;1.05;;;7.70;99.90;;;;;;5121806;27;20035;-38
2022/12/08 12:39:00;;;;;;;2.97;0.60;;;7.40;99.90;;;;;;5122714;27;20035;-40
2022/12/08 12:41:46;;;;;;;2.38;0.52;;;6.80;99.90;;;;;;5086747;27;20054;-39
2022/12/08 12:44:11;;;;;;;1.45;0.50;;;6.30;99.90;;;;;;5125066;27;20529;-39
2022/12/08 12:46:49;;;;;;;0.93;0.50;;;6.00;99.90;;;;;;5118671;27;20071;-38
2022/12/08 12:49:39;;;;;;;3.10;0.85;;;6.10;99.90;;;;;;5121158;27;20039;-39
2022/12/08 12:52:17;;;;;;;2.92;0.77;;;6.10;99.90;;;;;;5126468;27;20073;-39
2022/12/08 12:54:49;;;;;;;2.17;0.80;;;5.90;99.90;;;;;;5121769;27;20496;-38
2022/12/08 12:57:18;;;;;;;3.47;0.70;;;5.80;99.90;;;;;;5118701;27;20476;-39
2022/12/08 13:00:16;;;;;;;2.20;0.65;;;5.80;99.90;;;;;;5124201;27;20292;-39
2022/12/08 13:02:49;;;;;;;1.65;0.60;;;6.20;99.90;;;;;;5120474;27;20039;-39
2022/12/08 13:05:28;;;;;;;1.42;0.68;;;6.60;99.90;;;;;;5118751;27;20046;-39
2022/12/08 13:08:15;;;;;;;1.55;0.70;;;6.80;99.90;;;;;;5121150;27;20171;-39
2022/12/08 13:11:10;;;;;;;2.80;0.52;;;6.30;99.90;;;;;;5118675;27;20043;-39
2022/12/08 13:13:37;;;;;;;1.60;0.50;;;5.90;99.90;;;;;;5114453;27;20043;-39
2022/12/08 13:16:08;;;;;;;3.00;0.55;;;5.90;99.90;;;;;;5114467;27;20031;-39
2022/12/08 13:18:38;;;;;;;1.13;0.50;;;6.00;99.90;;;;;;5122521;27;20074;-39
2022/12/08 13:21:16;;;;;;;2.25;0.65;;;6.10;99.90;;;;;;5122973;27;20078;-38